createdAt,value
2022-10-19T00:00:49.089Z,29.08
2022-10-19T00:03:20.696Z,27.13
2022-10-19T00:05:50.351Z,28.88
2022-10-19T00:08:17.583Z,28.42
2022-10-19T00:10:44.698Z,30.02
2022-10-19T00:13:11.834Z,29.33
2022-10-19T00:15:40.443Z,29.92
2022-10-19T00:18:08.557Z,28.17
2022-10-19T00:20:36.941Z,28.80
2022-10-19T00:23:04.471Z,29.15
2022-10-19T00:25:31.955Z,31.55
2022-10-19T00:27:59.074Z,31.70
2022-10-19T00:30:26.176Z,29.60
2022-10-19T00:32:53.296Z,29.25
2022-10-19T00:35:20.403Z,27.20
2022-10-19T00:37:47.517Z,27.83
2022-10-19T00:40:14.623Z,30.23
2022-10-19T00:42:41.798Z,31.90
2022-10-19T00:45:15.667Z,32.08
2022-10-19T00:47:44.868Z,33.72
2022-10-19T00:50:14.302Z,35.60
2022-10-19T00:52:41.859Z,31.95
2022-10-19T00:55:10.810Z,33.28
2022-10-19T00:57:38.312Z,30.65
2022-10-19T01:00:07.260Z,34.10
2022-10-19T01:02:35.342Z,32.15
2022-10-19T01:05:03.935Z,34.25
2022-10-19T01:07:31.728Z,34.85
2022-10-19T01:10:00.195Z,32.67
2022-10-19T01:13:18.123Z,34.05
2022-10-19T01:16:23.252Z,31.83
2022-10-19T01:18:58.003Z,32.13
2022-10-19T01:21:29.017Z,32.75
2022-10-19T01:24:18.010Z,34.45
2022-10-19T01:27:05.376Z,29.95
2022-10-19T01:30:03.100Z,28.23
2022-10-19T01:32:57.076Z,29.85
2022-10-19T01:35:43.590Z,27.88
2022-10-19T01:38:17.639Z,27.83
2022-10-19T01:40:55.254Z,29.98
2022-10-19T01:43:31.207Z,31.63
2022-10-19T01:46:09.253Z,32.60
2022-10-19T01:48:40.970Z,32.22
2022-10-19T01:51:17.326Z,29.17
2022-10-19T01:53:49.480Z,28.50
2022-10-19T01:56:19.926Z,29.02
2022-10-19T01:58:48.775Z,30.75
2022-10-19T02:01:19.860Z,31.00
2022-10-19T02:03:50.131Z,29.08
2022-10-19T02:06:18.282Z,33.17
2022-10-19T02:08:48.815Z,33.13
2022-10-19T02:11:17.880Z,31.13
2022-10-19T02:13:48.943Z,32.10
2022-10-19T02:16:25.086Z,29.75
2022-10-19T02:18:54.939Z,29.05
2022-10-19T02:21:22.549Z,27.90
2022-10-19T02:23:51.906Z,26.52
2022-10-19T02:26:22.140Z,26.10
2022-10-19T02:28:50.427Z,25.05
2022-10-19T02:31:17.670Z,27.08
2022-10-19T02:33:45.027Z,26.20
2022-10-19T02:36:12.539Z,24.83
2022-10-19T02:38:40.784Z,23.95
2022-10-19T02:41:23.037Z,23.58
2022-10-19T02:43:56.942Z,24.02
2022-10-19T02:46:31.921Z,24.67
2022-10-19T02:49:01.054Z,24.55
2022-10-19T02:51:36.932Z,23.55
2022-10-19T02:54:06.090Z,23.67
2022-10-19T02:56:35.189Z,23.23
2022-10-19T02:59:03.344Z,23.20
2022-10-19T03:01:30.526Z,26.60
2022-10-19T03:03:57.647Z,26.15
2022-10-19T03:06:24.853Z,26.33
2022-10-19T03:08:52.026Z,29.20
2022-10-19T03:11:19.221Z,28.40
2022-10-19T03:16:18.458Z,27.92
2022-10-19T03:18:48.930Z,27.15
2022-10-19T03:21:16.382Z,26.38
2022-10-19T03:23:43.540Z,26.27
2022-10-19T03:26:15.022Z,29.88
2022-10-19T03:28:42.526Z,28.95
2022-10-19T03:31:09.786Z,28.67
2022-10-19T03:33:36.899Z,28.52
2022-10-19T03:36:24.357Z,28.70
2022-10-19T03:38:53.538Z,27.45
2022-10-19T03:41:22.082Z,27.48
2022-10-19T03:43:49.436Z,28.35
2022-10-19T03:46:16.883Z,29.77
2022-10-19T03:48:44.114Z,29.27
2022-10-19T03:51:16.912Z,28.20
2022-10-19T03:53:45.314Z,26.93
2022-10-19T03:56:15.031Z,27.15
2022-10-19T03:58:43.987Z,28.58
2022-10-19T04:01:14.491Z,27.75
2022-10-19T04:03:42.104Z,26.45
2022-10-19T04:06:14.817Z,28.08
2022-10-19T04:08:44.590Z,27.50
2022-10-19T04:11:14.867Z,25.15
2022-10-19T04:13:41.977Z,26.05
2022-10-19T04:16:13.278Z,25.02
2022-10-19T04:18:40.479Z,26.70
2022-10-19T04:21:07.658Z,26.65
2022-10-19T04:23:36.106Z,26.17
2022-10-19T04:26:07.962Z,27.73
2022-10-19T04:28:35.180Z,23.92
2022-10-19T04:31:06.208Z,23.58
2022-10-19T04:33:34.414Z,25.95
2022-10-19T04:36:07.309Z,24.58
2022-10-19T04:38:35.063Z,24.58
2022-10-19T04:41:08.259Z,25.73
2022-10-19T04:43:36.070Z,24.25
2022-10-19T04:46:09.212Z,22.85
2022-10-19T04:48:37.823Z,22.23
2022-10-19T04:51:05.339Z,25.27
2022-10-19T04:53:33.057Z,26.35
2022-10-19T04:56:00.562Z,26.15
2022-10-19T04:58:27.642Z,24.95
2022-10-19T05:00:54.809Z,33.72
2022-10-19T05:03:21.911Z,35.10
2022-10-19T05:05:49.754Z,23.40
2022-10-19T05:08:17.203Z,22.65
2022-10-19T05:10:47.659Z,21.63
2022-10-19T05:13:14.983Z,24.42
2022-10-19T05:15:42.142Z,20.33
2022-10-19T05:18:09.232Z,21.30
2022-10-19T05:20:36.347Z,20.38
2022-10-19T05:23:06.426Z,21.23
2022-10-19T05:25:34.595Z,21.00
2022-10-19T05:28:01.683Z,20.35
2022-10-19T05:30:28.882Z,19.60
2022-10-19T05:32:56.038Z,19.95
2022-10-19T05:35:23.165Z,20.33
2022-10-19T05:37:55.154Z,19.60
2022-10-19T05:40:22.271Z,19.77
2022-10-19T05:42:49.327Z,21.58
2022-10-19T05:45:16.421Z,20.90
2022-10-19T05:47:43.502Z,19.75
2022-10-19T05:50:10.577Z,19.63
2022-10-19T05:52:37.666Z,21.80
2022-10-19T05:55:05.372Z,21.65
2022-10-19T05:57:33.192Z,21.55
2022-10-19T06:00:00.603Z,22.75
2022-10-19T06:02:27.699Z,24.30
2022-10-19T06:04:54.820Z,23.27
2022-10-19T06:07:21.885Z,24.10
2022-10-19T06:09:48.979Z,23.20
2022-10-19T06:12:20.449Z,23.23
2022-10-19T06:14:52.816Z,22.77
2022-10-19T06:17:19.908Z,21.00
2022-10-19T06:19:47.018Z,24.25
2022-10-19T06:22:14.151Z,23.08
2022-10-19T06:24:41.237Z,22.35
2022-10-19T06:27:08.388Z,21.42
2022-10-19T06:29:35.680Z,20.10
2022-10-19T06:32:03.666Z,20.27
2022-10-19T06:34:30.974Z,19.13
2022-10-19T06:36:58.211Z,20.35
2022-10-19T06:39:25.356Z,21.02
2022-10-19T06:41:52.459Z,19.60
2022-10-19T06:44:19.747Z,20.13
2022-10-19T06:46:46.952Z,19.67
2022-10-19T06:49:14.709Z,18.25
2022-10-19T06:51:41.946Z,19.58
2022-10-19T06:54:09.263Z,20.00
2022-10-19T06:56:36.470Z,18.92
2022-10-19T06:59:03.682Z,19.08
2022-10-19T07:01:31.085Z,19.25
2022-10-19T07:03:58.214Z,18.48
2022-10-19T07:06:26.914Z,17.58
2022-10-19T07:08:54.046Z,17.48
2022-10-19T07:11:22.424Z,17.23
2022-10-19T07:13:50.394Z,16.55
2022-10-19T07:16:20.968Z,15.52
2022-10-19T07:18:50.783Z,16.80
2022-10-19T07:21:18.951Z,17.75
2022-10-19T07:23:47.415Z,16.75
2022-10-19T07:26:27.417Z,18.13
2022-10-19T07:28:57.838Z,16.73
2022-10-19T07:31:26.679Z,18.67
2022-10-19T07:33:56.135Z,28.25
2022-10-19T07:36:24.638Z,29.50
2022-10-19T07:38:52.289Z,34.40
2022-10-19T07:41:21.807Z,34.55
2022-10-19T07:43:51.136Z,39.30
2022-10-19T07:46:25.352Z,39.40
2022-10-19T07:48:53.383Z,42.08
2022-10-19T07:51:21.670Z,42.95
2022-10-19T07:53:49.129Z,45.13
2022-10-19T07:56:21.497Z,42.28
2022-10-19T07:58:50.701Z,42.58
2022-10-19T08:01:23.899Z,41.38
2022-10-19T08:06:42.550Z,36.92
2022-10-19T08:09:11.464Z,37.50
2022-10-19T08:11:42.791Z,35.35
2022-10-19T08:14:09.912Z,36.08
2022-10-19T08:16:44.155Z,32.13
2022-10-19T08:19:13.492Z,34.75
2022-10-19T08:21:43.607Z,29.17
2022-10-19T08:24:13.290Z,28.90
2022-10-19T08:26:41.054Z,32.53
2022-10-19T08:29:19.610Z,28.83
2022-10-19T08:31:48.193Z,27.15
2022-10-19T08:34:16.330Z,27.27
2022-10-19T08:36:43.543Z,25.80
2022-10-19T08:39:12.650Z,26.45
2022-10-19T08:41:39.739Z,30.10
2022-10-19T08:44:15.848Z,30.75
2022-10-19T08:47:23.310Z,29.20
2022-10-19T08:49:51.401Z,29.10
2022-10-19T08:52:29.586Z,25.05
2022-10-19T08:55:08.985Z,28.73
2022-10-19T08:58:13.510Z,30.83
2022-10-19T09:00:50.142Z,31.90
2022-10-19T09:03:37.827Z,34.83
2022-10-19T09:06:34.198Z,32.05
2022-10-19T09:09:01.439Z,32.00
2022-10-19T09:11:38.508Z,27.42
2022-10-19T09:14:14.900Z,27.83
2022-10-19T09:16:42.720Z,29.98
2022-10-19T09:19:25.597Z,29.30
2022-10-19T09:21:57.363Z,31.85
2022-10-19T09:24:29.765Z,31.65
2022-10-19T09:27:00.801Z,30.50
2022-10-19T09:29:40.086Z,30.83
2022-10-19T09:32:33.538Z,30.98
2022-10-19T09:35:22.282Z,27.40
2022-10-19T09:37:51.198Z,29.27
2022-10-19T09:40:25.284Z,31.80
2022-10-19T09:42:57.346Z,32.08
2022-10-19T09:45:47.774Z,30.00
2022-10-19T09:48:23.811Z,30.48
2022-10-19T09:51:00.128Z,28.42
2022-10-19T09:53:29.218Z,30.63
2022-10-19T09:56:02.876Z,30.88
2022-10-19T09:58:32.946Z,32.30
2022-10-19T10:01:02.477Z,34.17
2022-10-19T10:03:43.566Z,33.20
2022-10-19T10:06:15.296Z,34.30
2022-10-19T10:08:48.518Z,33.08
2022-10-19T10:13:52.786Z,34.00
2022-10-19T10:16:24.850Z,30.33
2022-10-19T10:18:56.913Z,27.35
2022-10-19T10:21:27.038Z,38.60
2022-10-19T10:24:02.976Z,33.85
2022-10-19T10:26:30.149Z,35.65
2022-10-19T10:29:00.662Z,28.75
2022-10-19T10:31:30.157Z,37.28
2022-10-19T10:34:10.963Z,37.35
2022-10-19T10:36:53.635Z,35.35
2022-10-19T10:39:20.852Z,33.60
2022-10-19T10:41:49.021Z,35.97
2022-10-19T10:44:26.487Z,33.50
2022-10-19T10:47:00.115Z,39.13
2022-10-19T10:49:35.551Z,30.23
2022-10-19T10:52:10.746Z,31.30
2022-10-19T10:54:38.811Z,30.77
2022-10-19T10:57:16.647Z,35.70
2022-10-19T10:59:51.881Z,35.22
2022-10-19T11:02:27.797Z,28.45
2022-10-19T11:05:11.742Z,35.75
2022-10-19T11:07:44.157Z,38.40
2022-10-19T11:10:26.666Z,39.20
2022-10-19T11:13:18.313Z,36.57
2022-10-19T11:16:06.699Z,37.50
2022-10-19T11:18:46.063Z,34.42
2022-10-19T11:21:24.063Z,34.95
2022-10-19T11:24:16.526Z,37.60
2022-10-19T11:27:18.407Z,35.92
2022-10-19T11:29:57.625Z,36.08
2022-10-19T11:32:35.112Z,31.17
2022-10-19T11:35:17.432Z,35.55
2022-10-19T11:38:17.398Z,34.60
2022-10-19T11:41:26.403Z,32.92
2022-10-19T11:44:20.753Z,35.17
2022-10-19T11:47:14.058Z,33.63
2022-10-19T11:49:50.255Z,31.70
2022-10-19T11:52:46.278Z,34.10
2022-10-19T11:55:40.809Z,34.35
2022-10-19T11:58:38.102Z,31.05
2022-10-19T12:01:23.722Z,35.60
2022-10-19T12:04:11.010Z,34.30
2022-10-19T12:06:43.826Z,32.13
2022-10-19T12:09:35.425Z,31.30
2022-10-19T12:12:19.522Z,30.10
2022-10-19T12:14:51.607Z,31.20
2022-10-19T12:17:26.399Z,34.75
2022-10-19T12:19:59.501Z,30.65
2022-10-19T12:24:59.669Z,32.72
2022-10-19T12:27:47.672Z,28.77
2022-10-19T12:30:23.563Z,28.90
2022-10-19T12:33:14.606Z,30.40
2022-10-19T12:35:59.639Z,26.92
2022-10-19T12:38:40.892Z,24.40
2022-10-19T12:42:00.947Z,27.35
2022-10-19T12:44:39.791Z,27.35
2022-10-19T12:47:11.852Z,28.05
2022-10-19T12:49:45.786Z,27.55
2022-10-19T12:52:15.275Z,29.02
2022-10-19T12:54:43.970Z,27.90
2022-10-19T12:57:29.959Z,28.65
2022-10-19T13:00:04.241Z,26.98
2022-10-19T13:02:35.597Z,25.65
2022-10-19T13:05:04.358Z,26.77
2022-10-19T13:07:36.056Z,28.25
2022-10-19T13:10:06.894Z,29.17
2022-10-19T13:12:46.286Z,30.20
2022-10-19T13:15:39.384Z,28.17
2022-10-19T13:18:13.971Z,29.80
2022-10-19T13:20:50.268Z,24.02
2022-10-19T13:23:17.649Z,27.85
2022-10-19T13:25:44.814Z,28.10
2022-10-19T13:28:17.790Z,26.77
2022-10-19T13:30:44.878Z,28.30
2022-10-19T13:33:28.435Z,25.02
2022-10-19T13:35:58.325Z,24.50
2022-10-19T13:38:26.327Z,26.00
2022-10-19T13:41:25.559Z,23.30
2022-10-19T13:44:01.723Z,20.85
2022-10-19T13:46:28.780Z,21.65
2022-10-19T13:48:58.701Z,19.48
2022-10-19T13:51:46.634Z,19.90
2022-10-19T13:54:37.882Z,19.45
2022-10-19T13:57:24.002Z,19.17
2022-10-19T14:00:15.756Z,19.17
2022-10-19T14:03:22.429Z,16.70
2022-10-19T14:06:13.256Z,22.98
2022-10-19T14:09:21.493Z,21.40
2022-10-19T14:11:52.652Z,25.40
2022-10-19T14:14:24.253Z,21.17
2022-10-19T14:17:03.065Z,23.30
2022-10-19T14:19:43.710Z,20.08
2022-10-19T14:22:37.231Z,19.60
2022-10-19T14:27:43.571Z,19.80
2022-10-19T14:30:25.458Z,22.30
2022-10-19T14:32:56.836Z,17.83
2022-10-19T14:35:38.273Z,18.20
2022-10-19T14:38:08.481Z,19.05
2022-10-19T14:40:41.068Z,19.20
2022-10-19T14:43:31.582Z,18.85
2022-10-19T14:46:07.558Z,15.18
2022-10-19T14:48:36.540Z,16.80
2022-10-19T14:51:09.941Z,17.20
2022-10-19T14:53:42.501Z,16.25
2022-10-19T14:56:21.183Z,17.08
2022-10-19T14:59:02.660Z,17.73
2022-10-19T15:01:30.058Z,17.15
2022-10-19T15:03:57.352Z,19.25
2022-10-19T15:06:29.983Z,17.92
2022-10-19T15:09:03.830Z,19.80
2022-10-19T15:11:37.071Z,19.15
2022-10-19T15:14:12.007Z,20.15
2022-10-19T15:16:39.115Z,15.75
2022-10-19T15:19:18.318Z,16.83
2022-10-19T15:22:05.544Z,14.77
2022-10-19T15:24:32.714Z,15.80
2022-10-19T15:27:19.216Z,16.70
2022-10-19T15:29:57.019Z,15.77
2022-10-19T15:32:29.566Z,17.52
2022-10-19T15:34:56.742Z,16.08
2022-10-19T15:39:56.906Z,16.42
2022-10-19T15:42:36.694Z,15.65
2022-10-19T15:45:24.986Z,15.95
2022-10-19T15:48:20.930Z,14.40
2022-10-19T15:50:50.335Z,16.65
2022-10-19T15:53:18.990Z,16.98
2022-10-19T15:55:46.334Z,17.40
2022-10-19T15:58:14.263Z,15.75
2022-10-19T16:00:41.891Z,15.88
2022-10-19T16:03:09.209Z,15.73
2022-10-19T16:05:36.638Z,16.50
2022-10-19T16:08:07.824Z,17.95
2022-10-19T16:10:37.279Z,15.85
2022-10-19T16:13:04.510Z,16.17
2022-10-19T16:15:31.659Z,14.95
2022-10-19T16:18:00.005Z,15.13
2022-10-19T16:20:29.185Z,15.43
2022-10-19T16:22:56.944Z,17.58
2022-10-19T16:25:24.411Z,15.88
2022-10-19T16:27:51.579Z,15.70
2022-10-19T16:30:18.865Z,18.00
2022-10-19T16:32:48.531Z,16.13
2022-10-19T16:35:15.806Z,15.82
2022-10-19T16:37:42.993Z,17.45
2022-10-19T16:40:10.454Z,15.80
2022-10-19T16:42:37.910Z,14.50
2022-10-19T16:45:05.561Z,17.23
2022-10-19T16:47:32.687Z,17.95
2022-10-19T16:50:01.510Z,17.58
2022-10-19T16:52:31.386Z,17.75
2022-10-19T16:54:59.719Z,17.77
2022-10-19T16:57:26.918Z,17.58
2022-10-19T16:59:54.397Z,18.08
2022-10-19T17:02:22.210Z,19.48
2022-10-19T17:04:49.347Z,19.10
2022-10-19T17:07:16.742Z,19.73
2022-10-19T17:09:44.034Z,20.73
2022-10-19T17:12:11.697Z,18.67
2022-10-19T17:14:40.834Z,18.52
2022-10-19T17:17:09.513Z,19.67
2022-10-19T17:19:37.334Z,20.67
2022-10-19T17:22:05.410Z,19.70
2022-10-19T17:24:32.754Z,19.85
2022-10-19T17:27:02.814Z,20.48
2022-10-19T17:29:30.049Z,20.63
2022-10-19T17:31:58.062Z,19.33
2022-10-19T17:34:25.372Z,19.63
2022-10-19T17:36:52.472Z,21.85
2022-10-19T17:39:25.733Z,20.00
2022-10-19T17:42:01.204Z,20.38
2022-10-19T17:44:29.954Z,21.10
2022-10-19T17:46:57.129Z,20.40
2022-10-19T17:49:24.306Z,22.40
2022-10-19T17:51:53.183Z,21.83
2022-10-19T17:54:20.598Z,22.25
2022-10-19T17:56:47.754Z,23.42
2022-10-19T17:59:15.016Z,22.73
2022-10-19T18:01:42.159Z,23.33
2022-10-19T18:04:09.346Z,22.67
2022-10-19T18:06:38.199Z,22.35
2022-10-19T18:09:08.130Z,22.45
2022-10-19T18:11:43.734Z,19.92
2022-10-19T18:14:12.487Z,21.77
2022-10-19T18:16:45.449Z,20.10
2022-10-19T18:19:16.911Z,23.30
2022-10-19T18:21:46.035Z,21.52
2022-10-19T18:24:19.181Z,23.48
2022-10-19T18:26:47.997Z,21.83
2022-10-19T18:29:17.815Z,22.42
2022-10-19T18:31:49.054Z,23.92
2022-10-19T18:34:16.283Z,22.70
2022-10-19T18:36:44.254Z,21.92
2022-10-19T18:39:13.312Z,23.60
2022-10-19T18:41:41.287Z,24.73
2022-10-19T18:44:11.405Z,24.77
2022-10-19T18:46:38.968Z,23.73
2022-10-19T18:49:08.346Z,24.50
2022-10-19T18:51:36.046Z,24.58
2022-10-19T18:54:03.621Z,22.20
2022-10-19T18:56:30.793Z,23.98
2022-10-19T18:58:57.887Z,26.67
2022-10-19T19:01:27.232Z,21.88
2022-10-19T19:04:04.294Z,24.83
2022-10-19T19:06:33.053Z,26.40
2022-10-19T19:09:02.082Z,25.88
2022-10-19T19:11:35.848Z,25.95
2022-10-19T19:14:13.739Z,32.83
2022-10-19T19:16:43.246Z,28.02
2022-10-19T19:19:13.240Z,21.92
2022-10-19T19:21:43.836Z,23.02
2022-10-19T19:24:17.104Z,27.38
2022-10-19T19:26:48.285Z,25.25
2022-10-19T19:29:16.694Z,23.92
2022-10-19T19:31:44.234Z,24.95
2022-10-19T19:34:11.710Z,27.02
2022-10-19T19:39:15.597Z,25.92
2022-10-19T19:41:43.318Z,27.60
2022-10-19T19:44:10.731Z,24.80
2022-10-19T19:46:38.022Z,24.38
2022-10-19T19:49:05.406Z,24.92
2022-10-19T19:51:33.577Z,23.88
2022-10-19T19:54:00.852Z,27.30
2022-10-19T19:56:28.992Z,24.90
2022-10-19T19:58:57.791Z,24.13
2022-10-19T20:01:26.069Z,26.73
2022-10-19T20:03:53.391Z,26.73
2022-10-19T20:06:24.977Z,28.55
2022-10-19T20:08:54.886Z,29.60
2022-10-19T20:11:23.625Z,28.42
2022-10-19T20:13:51.023Z,30.17
2022-10-19T20:16:26.546Z,27.58
2022-10-19T20:19:00.655Z,29.05
2022-10-19T20:21:27.817Z,29.05
2022-10-19T20:23:55.083Z,27.23
2022-10-19T20:26:23.932Z,27.83
2022-10-19T20:28:51.071Z,29.05
2022-10-19T20:31:18.997Z,29.58
2022-10-19T20:33:49.720Z,30.05
2022-10-19T20:36:22.755Z,28.95
2022-10-19T20:38:56.713Z,31.50
2022-10-19T20:41:25.670Z,28.20
2022-10-19T20:43:53.765Z,28.73
2022-10-19T20:46:23.499Z,27.88
2022-10-19T20:48:51.351Z,27.67
2022-10-19T20:51:24.895Z,27.25
2022-10-19T20:53:55.993Z,27.77
2022-10-19T20:56:26.138Z,26.73
2022-10-19T20:58:58.429Z,28.10
2022-10-19T21:01:26.652Z,25.33
2022-10-19T21:03:56.257Z,26.45
2022-10-19T21:06:25.147Z,27.60
2022-10-19T21:08:52.767Z,26.48
2022-10-19T21:11:25.962Z,27.55
2022-10-19T21:13:55.260Z,26.00
2022-10-19T21:16:23.894Z,26.83
2022-10-19T21:18:51.004Z,27.33
2022-10-19T21:21:19.326Z,26.25
2022-10-19T21:23:49.121Z,26.92
2022-10-19T21:26:17.305Z,27.02
2022-10-19T21:28:48.843Z,26.92
2022-10-19T21:31:17.541Z,24.00
2022-10-19T21:33:45.517Z,25.83
2022-10-19T21:36:14.299Z,25.52
2022-10-19T21:38:42.702Z,26.17
2022-10-19T21:41:20.858Z,26.13
2022-10-19T21:43:51.012Z,24.83
2022-10-19T21:46:19.990Z,25.50
2022-10-19T21:48:47.629Z,24.90
2022-10-19T21:51:14.693Z,24.67
2022-10-19T21:53:41.759Z,27.67
2022-10-19T21:56:08.909Z,26.45
2022-10-19T21:58:35.982Z,27.13
2022-10-19T22:01:07.458Z,27.80
2022-10-19T22:03:34.622Z,28.88
2022-10-19T22:06:01.811Z,26.08
2022-10-19T22:08:28.973Z,27.52
2022-10-19T22:10:56.441Z,27.70
2022-10-19T22:13:23.541Z,25.92
2022-10-19T22:15:50.691Z,27.10
2022-10-19T22:18:17.747Z,26.73
2022-10-19T22:20:44.830Z,27.27
2022-10-19T22:23:11.922Z,26.80
2022-10-19T22:25:39.072Z,24.85
2022-10-19T22:28:06.158Z,25.35
2022-10-19T22:30:33.320Z,26.15
2022-10-19T22:33:00.438Z,24.55
2022-10-19T22:35:27.515Z,25.50
2022-10-19T22:37:54.655Z,26.35
2022-10-19T22:40:21.996Z,26.70
2022-10-19T22:42:49.053Z,24.55
2022-10-19T22:45:16.195Z,27.20
2022-10-19T22:47:44.272Z,26.70
2022-10-19T22:50:11.838Z,25.88
2022-10-19T22:52:39.147Z,29.38
2022-10-19T22:55:06.592Z,27.80
2022-10-19T22:57:33.658Z,27.52
2022-10-19T23:00:00.720Z,27.45
2022-10-19T23:02:29.182Z,30.80
2022-10-19T23:04:56.260Z,29.10
2022-10-19T23:07:23.334Z,28.13
2022-10-19T23:09:50.437Z,28.88
2022-10-19T23:12:17.548Z,27.27
2022-10-19T23:14:44.602Z,28.83
2022-10-19T23:17:11.781Z,28.65
2022-10-19T23:19:38.865Z,27.95
2022-10-19T23:22:05.931Z,28.98
2022-10-19T23:24:33.003Z,26.45
2022-10-19T23:27:00.207Z,27.90
2022-10-19T23:29:27.308Z,26.60
2022-10-19T23:31:54.390Z,26.63
2022-10-19T23:34:21.479Z,25.15
2022-10-19T23:36:48.587Z,25.65
2022-10-19T23:39:15.763Z,29.35
2022-10-19T23:41:42.852Z,27.75
2022-10-19T23:44:10.548Z,26.13
2022-10-19T23:46:37.675Z,31.10
2022-10-19T23:49:04.873Z,29.27
2022-10-19T23:51:32.111Z,27.48
2022-10-19T23:53:59.406Z,28.55
2022-10-19T23:56:28.486Z,28.65
2022-10-19T23:58:56.568Z,26.58
